Airfield :
LOGIN :

Register | Disclaimer

   EN    FR    IT 

 










Legend :    VFR   Marginal VFR   IFR   Intensive IFR   Very Intensive IFR
Visi :
Ceiling :
>= 8 km
>= 3000ft
5 to 8 km
1000 to 3000 ft
1500m to 5 km
500 to 1000 ft
800 to 1500m
200 to 500 ft
< 800m
< 200 ft
Symbols :   Thunderstorms  Fog  Heavy snow  Heavy precipitations  Wind > 20 kt
SIGMETs :     Misc.  Thunderstorms  Icing  Turbulence  Mountain Waves  Volcanic Ashes







- Airport Elevation : 1585 ft
- IATA code : SIR


LSGS - Sion

CURRENT METAR :
  • 231350Z 08019KT 050V110 9999 SCT070 SCT120 19/02 Q1009

EXPIRED METARs :
  • 231320Z 06015KT 030V100 9999 SCT070 SCT120 19/03 Q1009
  • 231250Z VRB04G15KT 9999 SCT070 19/04 Q1010
  • 231220Z VRB04KT 9999 SCT070 18/04 Q1010
  • 231150Z 13005KT 050V210 9999 SCT070 17/03 Q1010
  • 231120Z 03004KT 350V070 9999 FEW040 SCT080 16/06 Q1011

TAF TAF LSGS
Valid from the 23 at 12:00 until the 23 at 21:00 UTC


231125Z 2312/2321 VRB03KT 9999 FEW040 SCT070
TEMPO 2313/2318 03015G25KT
No reported NOTAMs for that airfield.



MET'MAP, your aeronautical weather chart ! - Copyright ORBIFLY December 2007 - Disclaimer

ORBIFLY MET'MAP TEAM :

Programming & Development : Alexandra Zaïnal
Concept & Development : Baudouin d'Aumeries
Co-Development & Prog : Marc-Olivier Méhu
Technical & hardware support : Manuel Goepfert

Contact : metmap@orbifly.com




SOURCES & CREDITS :

   NOAA